createdAt,value
2018-10-12T00:00:45.483Z,12.02
2018-10-12T00:01:45.523Z,11.94
2018-10-12T00:02:45.564Z,11.98
2018-10-12T00:03:45.604Z,11.98
2018-10-12T00:04:45.669Z,11.98
2018-10-12T00:05:45.687Z,11.95
2018-10-12T00:06:45.728Z,12.02
2018-10-12T00:07:45.766Z,11.95
2018-10-12T00:08:45.808Z,11.94
2018-10-12T00:09:45.847Z,11.98
2018-10-12T00:10:45.887Z,11.95
2018-10-12T00:11:45.928Z,11.90
2018-10-12T00:12:45.976Z,12.05
2018-10-12T00:13:46.008Z,12.07
2018-10-12T00:14:46.051Z,12.07
2018-10-12T00:15:46.089Z,12.07
2018-10-12T00:16:46.137Z,12.04
2018-10-12T00:17:46.170Z,12.19
2018-10-12T00:18:46.209Z,12.14
2018-10-12T00:19:46.250Z,12.16
2018-10-12T00:20:46.290Z,12.14
2018-10-12T00:21:46.336Z,12.19
2018-10-12T00:22:46.372Z,12.29
2018-10-12T00:23:46.420Z,12.27
2018-10-12T00:24:46.452Z,12.21
2018-10-12T00:25:46.495Z,12.23
2018-10-12T00:26:46.534Z,12.24
2018-10-12T00:27:46.572Z,12.21
2018-10-12T00:28:46.617Z,12.27
2018-10-12T00:29:46.654Z,12.31
2018-10-12T00:30:46.703Z,12.28
2018-10-12T00:31:46.738Z,12.32
2018-10-12T00:32:46.780Z,12.32
2018-10-12T00:33:46.816Z,12.37
2018-10-12T00:34:46.860Z,12.38
2018-10-12T00:35:46.949Z,12.35
2018-10-12T00:36:46.940Z,12.34
2018-10-12T00:37:46.979Z,12.35
2018-10-12T00:38:47.020Z,12.35
2018-10-12T00:39:47.063Z,12.31
2018-10-12T00:40:47.102Z,12.32
2018-10-12T00:41:47.140Z,12.37
2018-10-12T00:42:47.180Z,12.38
2018-10-12T00:43:47.222Z,12.41
2018-10-12T00:44:47.261Z,12.28
2018-10-12T00:45:47.304Z,12.34
2018-10-12T00:46:47.343Z,12.38
2018-10-12T00:47:47.385Z,12.38
2018-10-12T00:48:47.424Z,12.37
2018-10-12T00:49:47.537Z,12.38
2018-10-12T00:50:47.505Z,12.35
2018-10-12T00:51:47.549Z,12.37
2018-10-12T00:52:47.585Z,12.39
2018-10-12T00:53:47.625Z,12.38
2018-10-12T00:54:47.668Z,12.45
2018-10-12T00:55:47.707Z,12.42
2018-10-12T00:56:47.749Z,12.45
2018-10-12T00:57:47.787Z,12.45
2018-10-12T00:58:47.830Z,12.41
2018-10-12T00:59:47.870Z,12.45
2018-10-12T01:00:47.910Z,12.42
2018-10-12T01:01:47.950Z,12.39
2018-10-12T01:02:48.002Z,12.38
2018-10-12T01:03:48.033Z,12.41
2018-10-12T01:04:48.075Z,12.41
2018-10-12T01:05:48.114Z,12.42
2018-10-12T01:06:48.194Z,12.42
2018-10-12T01:07:48.194Z,12.42
2018-10-12T01:08:48.237Z,12.37
2018-10-12T01:09:48.277Z,12.45
2018-10-12T01:10:48.316Z,12.42
2018-10-12T01:11:48.360Z,12.49
2018-10-12T01:12:48.398Z,12.45
2018-10-12T01:13:48.437Z,12.46
2018-10-12T01:14:48.479Z,12.45
2018-10-12T01:15:48.520Z,12.41
2018-10-12T01:16:48.560Z,12.45
2018-10-12T01:17:48.600Z,12.42
2018-10-12T01:18:48.640Z,12.38
2018-10-12T01:19:48.682Z,12.42
2018-10-12T01:20:48.724Z,12.46
2018-10-12T01:21:48.766Z,12.41
2018-10-12T01:22:48.803Z,12.41
2018-10-12T01:23:48.844Z,12.42
2018-10-12T01:24:48.887Z,12.38
2018-10-12T01:25:48.935Z,12.42
2018-10-12T01:26:48.970Z,12.41
2018-10-12T01:27:49.005Z,12.38
2018-10-12T01:28:49.049Z,12.42
2018-10-12T01:29:49.087Z,12.49
2018-10-12T01:30:49.132Z,12.42
2018-10-12T01:31:49.169Z,12.38
2018-10-12T01:32:49.211Z,12.45
2018-10-12T01:33:49.252Z,12.45
2018-10-12T01:34:49.297Z,12.41
2018-10-12T01:35:49.337Z,12.39
2018-10-12T01:36:49.372Z,12.50
2018-10-12T01:37:49.412Z,12.53
2018-10-12T01:38:49.453Z,12.50
2018-10-12T01:39:49.494Z,12.59
2018-10-12T01:40:49.534Z,12.52
2018-10-12T01:41:49.575Z,12.47
2018-10-12T01:42:49.615Z,12.56
2018-10-12T01:43:49.656Z,12.50
2018-10-12T01:44:49.696Z,12.57
2018-10-12T01:45:49.736Z,12.50
2018-10-12T01:46:49.778Z,12.52
2018-10-12T01:47:49.819Z,12.65
2018-10-12T01:48:49.859Z,12.62
2018-10-12T01:49:49.899Z,12.57
2018-10-12T01:50:49.941Z,12.60
2018-10-12T01:51:49.982Z,12.60
2018-10-12T01:52:50.027Z,12.60
2018-10-12T01:53:50.062Z,12.67
2018-10-12T01:54:50.103Z,12.60
2018-10-12T01:55:50.144Z,12.65
2018-10-12T01:56:50.185Z,12.67
2018-10-12T01:57:50.224Z,12.65
2018-10-12T01:58:50.266Z,12.60
2018-10-12T01:59:50.308Z,12.67
2018-10-12T02:00:50.348Z,12.68
2018-10-12T02:01:50.388Z,12.64
2018-10-12T02:02:50.430Z,12.71
2018-10-12T02:03:50.472Z,12.67
2018-10-12T02:04:50.511Z,12.79
2018-10-12T02:05:50.554Z,12.77
2018-10-12T02:06:50.595Z,12.72
2018-10-12T02:07:50.633Z,12.79
2018-10-12T02:08:50.676Z,12.70
2018-10-12T02:09:50.723Z,12.78
2018-10-12T02:10:50.753Z,12.82
2018-10-12T02:11:50.800Z,12.77
2018-10-12T02:12:50.836Z,12.77
2018-10-12T02:13:50.876Z,12.71
2018-10-12T02:14:50.920Z,12.79
2018-10-12T02:15:50.959Z,12.77
2018-10-12T02:16:50.999Z,12.74
2018-10-12T02:17:51.038Z,12.75
2018-10-12T02:18:51.080Z,12.72
2018-10-12T02:19:51.120Z,12.74
2018-10-12T02:20:51.165Z,12.71
2018-10-12T02:21:51.207Z,12.75
2018-10-12T02:22:51.242Z,12.65
2018-10-12T02:23:51.284Z,12.65
2018-10-12T02:24:51.325Z,12.67
2018-10-12T02:25:51.364Z,12.62
2018-10-12T02:26:51.407Z,12.67
2018-10-12T02:27:51.449Z,12.70
2018-10-12T02:28:51.488Z,12.57
2018-10-12T02:29:51.528Z,12.64
2018-10-12T02:30:51.571Z,12.56
2018-10-12T02:31:51.648Z,12.59
2018-10-12T02:32:51.652Z,12.54
2018-10-12T02:33:51.692Z,12.50
2018-10-12T02:34:51.741Z,12.49
2018-10-12T02:35:51.774Z,12.41
2018-10-12T02:36:51.814Z,12.42
2018-10-12T02:37:51.859Z,12.39
2018-10-12T02:38:51.896Z,12.29
2018-10-12T02:39:51.938Z,12.23
2018-10-12T02:40:51.976Z,12.19
2018-10-12T02:41:52.016Z,12.13
2018-10-12T02:42:52.059Z,12.07
2018-10-12T02:43:52.099Z,11.96
2018-10-12T02:44:52.142Z,11.88
2018-10-12T02:45:52.179Z,11.96
2018-10-12T02:46:52.220Z,11.83
2018-10-12T02:47:52.261Z,11.79
2018-10-12T02:48:52.303Z,11.75
2018-10-12T02:49:52.343Z,11.75
2018-10-12T02:50:52.382Z,11.65
2018-10-12T02:51:52.422Z,11.64
2018-10-12T02:52:52.463Z,11.65
2018-10-12T02:53:52.503Z,11.55
2018-10-12T02:54:52.546Z,11.46
2018-10-12T02:55:52.585Z,11.40
2018-10-12T02:56:52.631Z,11.44
2018-10-12T02:57:52.666Z,11.32
2018-10-12T02:58:52.708Z,11.33
2018-10-12T02:59:52.748Z,11.32
2018-10-12T03:00:52.788Z,11.37
2018-10-12T03:01:52.829Z,11.36
2018-10-12T03:02:52.868Z,11.27
2018-10-12T03:03:52.910Z,11.22
2018-10-12T03:04:52.951Z,11.27
2018-10-12T03:05:52.990Z,11.21
2018-10-12T03:06:53.029Z,11.10
2018-10-12T03:07:53.070Z,11.21
2018-10-12T03:08:53.121Z,11.11
2018-10-12T03:09:53.154Z,11.19
2018-10-12T03:10:53.193Z,11.11
2018-10-12T03:11:53.232Z,11.15
2018-10-12T03:12:53.271Z,11.14
2018-10-12T03:13:53.310Z,10.99
2018-10-12T03:14:53.350Z,11.00
2018-10-12T03:15:53.390Z,10.96
2018-10-12T03:16:53.432Z,10.86
2018-10-12T03:17:53.470Z,10.91
2018-10-12T03:18:53.562Z,10.82
2018-10-12T03:19:53.551Z,10.79
2018-10-12T03:20:53.592Z,10.79
2018-10-12T03:21:53.632Z,10.78
2018-10-12T03:22:53.677Z,10.78
2018-10-12T03:23:53.712Z,10.78
2018-10-12T03:24:53.753Z,10.74
2018-10-12T03:25:53.795Z,10.74
2018-10-12T03:26:53.834Z,10.76
2018-10-12T03:27:53.877Z,10.71
2018-10-12T03:28:53.914Z,10.67
2018-10-12T03:29:53.956Z,10.68
2018-10-12T03:30:53.995Z,10.64
2018-10-12T03:31:54.036Z,10.74
2018-10-12T03:32:54.077Z,10.74
2018-10-12T03:33:54.113Z,10.68
2018-10-12T03:34:54.156Z,10.61
2018-10-12T03:35:54.193Z,10.67
2018-10-12T03:36:54.235Z,10.63
2018-10-12T03:37:54.278Z,10.63
2018-10-12T03:38:54.314Z,10.67
2018-10-12T03:39:54.354Z,10.60
2018-10-12T03:40:54.392Z,10.61
2018-10-12T03:41:54.436Z,10.55
2018-10-12T03:42:54.473Z,10.52
2018-10-12T03:43:54.512Z,10.53
2018-10-12T03:44:54.553Z,10.48
2018-10-12T03:45:54.593Z,10.44
2018-10-12T03:46:54.636Z,10.44
2018-10-12T03:47:54.673Z,10.42
2018-10-12T03:48:54.713Z,10.53
2018-10-12T03:49:54.777Z,10.55
2018-10-12T03:50:54.794Z,10.53
2018-10-12T03:51:54.915Z,10.56
2018-10-12T03:52:54.872Z,10.53
2018-10-12T03:53:54.912Z,10.47
2018-10-12T03:54:54.952Z,10.48
2018-10-12T03:55:54.996Z,10.42
2018-10-12T03:56:55.033Z,10.47
2018-10-12T03:57:55.071Z,10.38
2018-10-12T03:58:55.114Z,10.33
2018-10-12T03:59:55.151Z,10.27
2018-10-12T04:00:55.190Z,10.36
2018-10-12T04:01:55.230Z,10.30
2018-10-12T04:02:55.367Z,10.23
2018-10-12T04:03:55.311Z,10.22
2018-10-12T04:04:55.351Z,10.27
2018-10-12T04:05:55.391Z,10.20
2018-10-12T04:06:55.430Z,10.09
2018-10-12T04:07:55.472Z,10.17
2018-10-12T04:08:55.511Z,10.30
2018-10-12T04:09:55.550Z,10.22
2018-10-12T04:10:55.589Z,10.20
2018-10-12T04:11:55.630Z,10.29
2018-10-12T04:12:55.671Z,10.34
2018-10-12T04:13:55.708Z,10.27
2018-10-12T04:14:55.749Z,10.23
2018-10-12T04:15:55.787Z,10.25
2018-10-12T04:16:55.830Z,10.20
2018-10-12T04:17:55.867Z,10.25
2018-10-12T04:18:55.907Z,10.22
2018-10-12T04:19:55.948Z,10.29
2018-10-12T04:20:55.988Z,10.22
2018-10-12T04:21:56.028Z,10.22
2018-10-12T04:22:56.066Z,10.20
2018-10-12T04:23:56.107Z,10.23
2018-10-12T04:24:56.463Z,10.18
2018-10-12T04:25:56.188Z,10.23
2018-10-12T04:26:56.225Z,10.22
2018-10-12T04:27:56.266Z,10.20
2018-10-12T04:28:56.305Z,10.17
2018-10-12T04:29:56.344Z,10.17
2018-10-12T04:30:56.387Z,10.20
2018-10-12T04:31:56.425Z,10.14
2018-10-12T04:32:56.464Z,10.17
2018-10-12T04:33:56.505Z,10.12
2018-10-12T04:34:56.544Z,10.11
2018-10-12T04:35:56.585Z,10.09
2018-10-12T04:36:56.631Z,10.11
2018-10-12T04:37:56.662Z,9.96
2018-10-12T04:38:56.706Z,10.09
2018-10-12T04:39:56.741Z,10.02
2018-10-12T04:40:56.781Z,10.09
2018-10-12T04:41:56.819Z,10.14
2018-10-12T04:42:56.860Z,10.07
2018-10-12T04:43:56.902Z,9.96
2018-10-12T04:44:56.940Z,9.94
2018-10-12T04:45:56.979Z,10.02
2018-10-12T04:46:57.019Z,9.96
2018-10-12T04:47:57.060Z,9.96
2018-10-12T04:48:57.105Z,9.96
2018-10-12T04:49:57.152Z,9.93
2018-10-12T04:50:57.176Z,10.02
2018-10-12T04:51:57.225Z,9.97
2018-10-12T04:52:57.257Z,9.99
2018-10-12T04:53:57.297Z,9.90
2018-10-12T04:54:57.334Z,9.97
2018-10-12T04:55:57.386Z,9.96
2018-10-12T04:56:57.415Z,9.93
2018-10-12T04:57:57.453Z,9.96
2018-10-12T04:58:57.494Z,9.93
2018-10-12T04:59:57.537Z,9.90
2018-10-12T05:00:57.604Z,9.87
2018-10-12T05:01:57.613Z,9.94
2018-10-12T05:02:57.651Z,9.91
2018-10-12T05:03:57.695Z,9.83
2018-10-12T05:04:57.731Z,9.83
2018-10-12T05:05:57.774Z,9.78
2018-10-12T05:06:57.860Z,9.89
2018-10-12T05:07:57.852Z,9.83
2018-10-12T05:08:57.898Z,9.83
2018-10-12T05:09:57.931Z,9.90
2018-10-12T05:10:57.971Z,9.90
2018-10-12T05:11:58.008Z,9.90
2018-10-12T05:12:58.052Z,9.81
2018-10-12T05:13:58.088Z,9.78
2018-10-12T05:14:58.126Z,9.76
2018-10-12T05:15:58.168Z,9.75
2018-10-12T05:16:58.209Z,9.76
2018-10-12T05:17:58.245Z,9.75
2018-10-12T05:18:58.285Z,9.78
2018-10-12T05:19:58.327Z,9.84
2018-10-12T05:20:58.373Z,9.87
2018-10-12T05:21:58.428Z,9.91
2018-10-12T05:22:58.447Z,9.89
2018-10-12T05:23:58.485Z,9.87
2018-10-12T05:24:58.527Z,9.86
2018-10-12T05:25:58.596Z,9.74
2018-10-12T05:26:58.601Z,9.75
2018-10-12T05:27:58.644Z,9.83
2018-10-12T05:28:58.730Z,9.71
2018-10-12T05:29:58.746Z,9.79
2018-10-12T05:30:58.769Z,9.71
2018-10-12T05:31:58.803Z,9.74
2018-10-12T05:32:58.839Z,9.72
2018-10-12T05:33:58.879Z,9.69
2018-10-12T05:34:58.919Z,9.71
2018-10-12T05:35:59.065Z,9.75
2018-10-12T05:36:58.999Z,9.78
2018-10-12T05:37:59.037Z,9.71
2018-10-12T05:38:59.076Z,9.74
2018-10-12T05:39:59.115Z,9.69
2018-10-12T05:40:59.164Z,9.58
2018-10-12T05:41:59.194Z,9.65
2018-10-12T05:42:59.311Z,9.64
2018-10-12T05:43:59.275Z,9.65
2018-10-12T05:44:59.330Z,9.65
2018-10-12T05:45:59.359Z,9.66
2018-10-12T05:46:59.392Z,9.65
2018-10-12T05:47:59.432Z,9.69
2018-10-12T05:48:59.559Z,9.65
2018-10-12T05:49:59.509Z,9.61
2018-10-12T05:50:59.550Z,9.65
2018-10-12T05:51:59.590Z,9.64
2018-10-12T05:52:59.629Z,9.64
2018-10-12T05:53:59.668Z,9.72
2018-10-12T05:54:59.726Z,9.72
2018-10-12T05:55:59.749Z,9.65
2018-10-12T05:56:59.786Z,9.71
2018-10-12T05:57:59.830Z,9.66
2018-10-12T05:58:59.873Z,9.61
2018-10-12T05:59:59.906Z,9.76
2018-10-12T06:00:59.953Z,9.76
2018-10-12T06:01:59.984Z,9.79
2018-10-12T06:03:00.024Z,9.72
2018-10-12T06:04:00.073Z,9.75
2018-10-12T06:05:00.104Z,9.72
2018-10-12T06:06:00.150Z,9.72
2018-10-12T06:07:00.187Z,9.61
2018-10-12T06:08:00.227Z,9.64
2018-10-12T06:09:00.261Z,9.71
2018-10-12T06:10:00.346Z,9.61
2018-10-12T06:11:00.348Z,9.65
2018-10-12T06:12:00.379Z,9.65
2018-10-12T06:13:00.420Z,9.61
2018-10-12T06:14:00.508Z,9.65
2018-10-12T06:15:00.497Z,9.71
2018-10-12T06:16:00.579Z,9.74
2018-10-12T06:17:00.577Z,9.74
2018-10-12T06:18:00.619Z,9.72
2018-10-12T06:19:00.659Z,9.84
2018-10-12T06:20:00.695Z,9.72
2018-10-12T06:21:00.736Z,9.79
2018-10-12T06:22:00.773Z,9.83
2018-10-12T06:23:00.817Z,9.86
2018-10-12T06:24:00.856Z,9.84
2018-10-12T06:25:00.895Z,9.78
2018-10-12T06:26:00.986Z,9.83
2018-10-12T06:27:00.972Z,9.76
2018-10-12T06:28:01.010Z,9.81
2018-10-12T06:29:01.052Z,9.89
2018-10-12T06:30:01.090Z,9.91
2018-10-12T06:31:01.128Z,9.90
2018-10-12T06:32:01.171Z,9.94
2018-10-12T06:33:01.303Z,9.91
2018-10-12T06:34:01.255Z,9.99
2018-10-12T06:35:01.289Z,9.91
2018-10-12T06:36:01.330Z,9.94
2018-10-12T06:37:01.369Z,9.93
2018-10-12T06:38:01.408Z,9.93
2018-10-12T06:39:01.448Z,9.97
2018-10-12T06:40:01.497Z,10.08
2018-10-12T06:41:01.603Z,10.05
2018-10-12T06:42:01.588Z,10.15
2018-10-12T06:43:01.606Z,10.17
2018-10-12T06:44:01.654Z,10.22
2018-10-12T06:45:01.693Z,10.20
2018-10-12T06:46:01.725Z,10.22
2018-10-12T06:47:01.764Z,10.27
2018-10-12T06:48:01.805Z,10.27
2018-10-12T06:49:01.857Z,10.34
2018-10-12T06:50:01.884Z,10.34
2018-10-12T06:51:01.930Z,10.30
2018-10-12T06:52:01.964Z,10.26
2018-10-12T06:53:02.002Z,10.23
2018-10-12T06:54:02.126Z,10.26
2018-10-12T06:55:02.087Z,10.30
2018-10-12T06:56:02.125Z,10.36
2018-10-12T06:57:02.162Z,10.38
2018-10-12T06:58:02.205Z,10.38
2018-10-12T06:59:02.246Z,10.41
2018-10-12T07:00:02.385Z,10.40
2018-10-12T07:01:02.333Z,10.42
2018-10-12T07:02:02.416Z,10.44
2018-10-12T07:03:02.410Z,10.48
2018-10-12T07:04:02.439Z,10.52
2018-10-12T07:05:02.487Z,10.56
2018-10-12T07:06:02.520Z,10.61
2018-10-12T07:07:02.560Z,10.60
2018-10-12T07:08:02.599Z,10.64
2018-10-12T07:09:02.647Z,10.64
2018-10-12T07:10:02.680Z,10.67
2018-10-12T07:11:02.720Z,10.71
2018-10-12T07:12:02.759Z,10.82
2018-10-12T07:13:02.801Z,10.74
2018-10-12T07:14:02.841Z,10.81
2018-10-12T07:15:02.878Z,10.88
2018-10-12T07:16:02.926Z,11.00
2018-10-12T07:17:02.959Z,11.10
2018-10-12T07:18:03.001Z,11.11
2018-10-12T07:19:03.037Z,11.24
2018-10-12T07:20:03.078Z,11.29
2018-10-12T07:21:03.119Z,11.46
2018-10-12T07:22:03.160Z,11.46
2018-10-12T07:23:03.197Z,11.67
2018-10-12T07:24:03.239Z,11.65
2018-10-12T07:25:03.279Z,11.64
2018-10-12T07:26:03.391Z,11.76
2018-10-12T07:27:03.367Z,11.79
2018-10-12T07:28:03.398Z,11.72
2018-10-12T07:29:03.445Z,11.72
2018-10-12T07:30:03.476Z,11.70
2018-10-12T07:31:03.520Z,11.73
2018-10-12T07:32:03.559Z,11.69
2018-10-12T07:33:03.600Z,11.72
2018-10-12T07:34:03.639Z,11.72
2018-10-12T07:35:03.829Z,11.78
2018-10-12T07:36:03.719Z,11.83
2018-10-12T07:37:03.777Z,11.75
2018-10-12T07:38:03.801Z,11.82
2018-10-12T07:39:03.841Z,11.82
2018-10-12T07:40:03.883Z,11.88
2018-10-12T07:41:03.926Z,11.83
2018-10-12T07:42:03.961Z,11.95
2018-10-12T07:43:04.007Z,11.90
2018-10-12T07:44:04.040Z,11.95
2018-10-12T07:45:04.084Z,11.95
2018-10-12T07:46:04.123Z,11.94
2018-10-12T07:47:04.165Z,11.99
2018-10-12T07:48:04.249Z,12.07
2018-10-12T07:49:04.244Z,12.10
2018-10-12T07:50:04.286Z,12.19
2018-10-12T07:51:04.331Z,12.23
2018-10-12T07:52:04.363Z,12.23
2018-10-12T07:53:04.457Z,12.27
2018-10-12T07:54:04.444Z,12.39
2018-10-12T07:55:04.489Z,12.39
2018-10-12T07:56:04.529Z,12.45
2018-10-12T07:57:04.567Z,12.41
2018-10-12T07:58:04.607Z,12.54
2018-10-12T07:59:04.647Z,12.53
2018-10-12T08:00:04.742Z,12.52
2018-10-12T08:01:04.727Z,12.52
2018-10-12T08:02:04.774Z,12.60
2018-10-12T08:03:04.809Z,12.71
2018-10-12T08:04:04.849Z,12.57
2018-10-12T08:05:04.897Z,12.77
2018-10-12T08:06:04.948Z,12.77
2018-10-12T08:07:04.980Z,12.79
2018-10-12T08:08:05.013Z,12.87
2018-10-12T08:09:05.056Z,12.92
2018-10-12T08:10:05.094Z,13.01
2018-10-12T08:11:05.135Z,13.05
2018-10-12T08:12:05.182Z,12.95
2018-10-12T08:13:05.218Z,13.01
2018-10-12T08:14:05.286Z,12.96
2018-10-12T08:15:05.301Z,13.12
2018-10-12T08:16:05.339Z,13.15
2018-10-12T08:17:05.381Z,13.12
2018-10-12T08:18:05.420Z,13.11
2018-10-12T08:19:05.462Z,13.08
2018-10-12T08:20:05.503Z,13.26
2018-10-12T08:21:05.546Z,13.28
2018-10-12T08:22:05.585Z,13.36
2018-10-12T08:23:05.626Z,13.39
2018-10-12T08:24:05.669Z,13.44
2018-10-12T08:25:05.707Z,13.46
2018-10-12T08:26:05.748Z,13.45
2018-10-12T08:27:05.900Z,13.51
2018-10-12T08:28:05.832Z,13.62
2018-10-12T08:29:05.872Z,13.57
2018-10-12T08:30:05.913Z,13.81
2018-10-12T08:31:05.954Z,13.69
2018-10-12T08:32:05.999Z,13.71
2018-10-12T08:33:06.038Z,13.82
2018-10-12T08:34:06.082Z,13.89
2018-10-12T08:35:06.126Z,13.91
2018-10-12T08:36:06.171Z,13.97
2018-10-12T08:37:06.205Z,13.97
2018-10-12T08:38:06.253Z,14.09
2018-10-12T08:39:06.284Z,14.12
2018-10-12T08:40:06.337Z,14.28
2018-10-12T08:41:06.366Z,14.35
2018-10-12T08:42:06.410Z,14.40
2018-10-12T08:43:06.449Z,14.47
2018-10-12T08:44:06.491Z,14.60
2018-10-12T08:45:06.530Z,14.64
2018-10-12T08:46:06.571Z,14.65
2018-10-12T08:47:06.614Z,14.75
2018-10-12T08:48:06.658Z,14.77
2018-10-12T08:49:06.695Z,14.98
2018-10-12T08:50:06.737Z,15.01
2018-10-12T08:51:06.778Z,15.03
2018-10-12T08:52:06.822Z,15.01
2018-10-12T08:53:06.862Z,14.98
2018-10-12T08:54:06.906Z,15.07
2018-10-12T08:55:06.953Z,15.10
2018-10-12T08:56:06.984Z,15.19
2018-10-12T08:57:07.026Z,15.25
2018-10-12T08:58:07.068Z,15.31
2018-10-12T08:59:07.110Z,15.39
2018-10-12T09:00:07.152Z,15.38
2018-10-12T09:01:07.192Z,15.49
2018-10-12T09:02:07.251Z,15.57
2018-10-12T09:03:07.334Z,15.65
2018-10-12T09:04:07.323Z,15.76
2018-10-12T09:05:07.560Z,15.84
2018-10-12T09:06:07.400Z,15.86
2018-10-12T09:07:07.444Z,15.94
2018-10-12T09:08:07.485Z,15.94
2018-10-12T09:09:07.531Z,16.02
2018-10-12T09:10:07.818Z,16.15
2018-10-12T09:11:07.611Z,16.14
2018-10-12T09:12:07.652Z,16.28
2018-10-12T09:13:07.697Z,16.27
2018-10-12T09:14:07.734Z,16.28
2018-10-12T09:15:07.776Z,16.39
2018-10-12T09:16:07.830Z,16.46
2018-10-12T09:17:07.862Z,16.38
2018-10-12T09:18:07.902Z,16.48
2018-10-12T09:19:07.944Z,16.60
2018-10-12T09:20:08.028Z,16.68
2018-10-12T09:21:08.029Z,16.76
2018-10-12T09:22:08.071Z,16.86
2018-10-12T09:23:08.112Z,16.86
2018-10-12T09:24:08.162Z,16.96
2018-10-12T09:25:08.197Z,17.07
2018-10-12T09:26:08.249Z,17.14
2018-10-12T09:27:08.356Z,17.18
2018-10-12T09:28:08.322Z,17.33
2018-10-12T09:29:08.373Z,17.43
2018-10-12T09:30:08.429Z,17.51
2018-10-12T09:31:08.451Z,17.52
2018-10-12T09:32:08.493Z,17.54
2018-10-12T09:33:08.535Z,17.59
2018-10-12T09:34:08.577Z,17.66
2018-10-12T09:35:08.617Z,17.71
2018-10-12T09:36:08.663Z,17.79
2018-10-12T09:37:08.733Z,17.82
2018-10-12T09:38:08.747Z,17.90
2018-10-12T09:39:08.797Z,17.92
2018-10-12T09:40:08.829Z,17.95
2018-10-12T09:41:08.873Z,18.02
2018-10-12T09:42:08.917Z,18.15
2018-10-12T09:43:09.020Z,18.21
2018-10-12T09:44:09.009Z,18.26
2018-10-12T09:45:09.050Z,18.33
2018-10-12T09:46:09.087Z,18.26
2018-10-12T09:47:09.139Z,18.36
2018-10-12T09:48:09.172Z,18.35
2018-10-12T09:49:09.214Z,18.41
2018-10-12T09:50:09.287Z,18.51
2018-10-12T09:51:09.307Z,18.50
2018-10-12T09:52:09.341Z,18.51
2018-10-12T09:53:09.409Z,18.62
2018-10-12T09:54:09.427Z,18.66
2018-10-12T09:55:09.482Z,18.66
2018-10-12T09:56:09.521Z,18.72
2018-10-12T09:57:09.556Z,18.78
2018-10-12T09:58:09.606Z,18.88
2018-10-12T09:59:09.652Z,18.90
2018-10-12T10:00:09.685Z,18.85
2018-10-12T10:01:09.727Z,18.94
2018-10-12T10:02:09.821Z,18.94
2018-10-12T10:03:09.821Z,18.99
2018-10-12T10:04:09.858Z,18.98
2018-10-12T10:05:09.908Z,19.07
2018-10-12T10:06:09.949Z,19.07
2018-10-12T10:07:09.985Z,19.22
2018-10-12T10:08:10.123Z,19.18
2018-10-12T10:09:10.075Z,19.16
2018-10-12T10:10:10.122Z,19.23
2018-10-12T10:11:10.156Z,19.31
2018-10-12T10:12:10.207Z,19.46
2018-10-12T10:13:10.244Z,19.43
2018-10-12T10:14:10.285Z,19.47
2018-10-12T10:15:10.331Z,19.39
2018-10-12T10:16:10.374Z,19.44
2018-10-12T10:17:10.421Z,19.61
2018-10-12T10:18:10.459Z,19.62
2018-10-12T10:19:10.563Z,19.71
2018-10-12T10:20:10.547Z,19.73
2018-10-12T10:21:10.589Z,19.86
2018-10-12T10:22:10.632Z,19.84
2018-10-12T10:23:10.676Z,19.88
2018-10-12T10:24:10.729Z,19.95
2018-10-12T10:25:10.854Z,19.99
2018-10-12T10:26:10.810Z,20.05
2018-10-12T10:27:10.850Z,20.13
2018-10-12T10:28:10.897Z,20.26
2018-10-12T10:29:10.992Z,20.26
2018-10-12T10:30:10.982Z,20.32
2018-10-12T10:31:11.026Z,20.42
2018-10-12T10:32:11.168Z,20.42
2018-10-12T10:33:11.110Z,20.43
2018-10-12T10:34:11.168Z,20.54
2018-10-12T10:35:11.197Z,20.54
2018-10-12T10:36:11.244Z,20.64
2018-10-12T10:37:11.283Z,20.70
2018-10-12T10:38:11.326Z,20.64
2018-10-12T10:39:11.461Z,20.61
2018-10-12T10:40:11.423Z,20.62
2018-10-12T10:41:11.458Z,20.70
2018-10-12T10:42:11.502Z,20.67
2018-10-12T10:43:11.664Z,20.79
2018-10-12T10:44:11.604Z,20.76
2018-10-12T10:45:11.636Z,20.88
2018-10-12T10:46:11.737Z,20.87
2018-10-12T10:47:11.730Z,20.87
2018-10-12T10:48:11.764Z,20.87
2018-10-12T10:49:11.807Z,20.91
2018-10-12T10:50:11.852Z,20.98
2018-10-12T10:51:11.897Z,20.92
2018-10-12T10:52:11.941Z,20.98
2018-10-12T10:53:11.984Z,20.99
2018-10-12T10:54:12.026Z,21.01
2018-10-12T10:55:12.134Z,21.12
2018-10-12T10:56:12.116Z,21.17
2018-10-12T10:57:12.168Z,21.16
2018-10-12T10:58:12.202Z,21.14
2018-10-12T10:59:12.245Z,21.17
2018-10-12T11:00:12.291Z,21.21
2018-10-12T11:01:12.335Z,21.29
2018-10-12T11:02:12.379Z,21.31
2018-10-12T11:03:12.468Z,21.40
2018-10-12T11:04:12.471Z,21.34
2018-10-12T11:05:12.514Z,21.37
2018-10-12T11:06:12.608Z,21.40
2018-10-12T11:07:12.646Z,21.42
2018-10-12T11:08:12.642Z,21.47
2018-10-12T11:09:12.686Z,21.34
2018-10-12T11:10:12.728Z,21.44
2018-10-12T11:11:12.773Z,21.47
2018-10-12T11:12:12.868Z,21.52
2018-10-12T11:13:12.862Z,21.54
2018-10-12T11:14:12.903Z,21.50
2018-10-12T11:15:12.949Z,21.50
2018-10-12T11:16:12.998Z,21.53
2018-10-12T11:17:13.090Z,21.64
2018-10-12T11:18:13.079Z,21.67
2018-10-12T11:19:13.135Z,21.58
2018-10-12T11:20:13.172Z,21.58
2018-10-12T11:21:13.215Z,21.64
2018-10-12T11:22:13.257Z,21.64
2018-10-12T11:23:13.305Z,21.72
2018-10-12T11:24:13.389Z,21.72
2018-10-12T11:25:13.392Z,21.72
2018-10-12T11:26:13.457Z,21.68
2018-10-12T11:27:13.481Z,21.71
2018-10-12T11:28:13.521Z,21.77
2018-10-12T11:29:13.567Z,21.79
2018-10-12T11:30:13.617Z,21.83
2018-10-12T11:31:13.654Z,21.90
2018-10-12T11:32:13.698Z,21.91
2018-10-12T11:33:13.743Z,21.94
2018-10-12T11:34:13.786Z,21.91
2018-10-12T11:35:13.880Z,21.96
2018-10-12T11:36:13.877Z,21.90
2018-10-12T11:37:13.919Z,22.09
2018-10-12T11:38:14.003Z,22.07
2018-10-12T11:39:14.015Z,22.07
2018-10-12T11:40:14.054Z,22.05
2018-10-12T11:41:14.099Z,22.05
2018-10-12T11:42:14.147Z,22.12
2018-10-12T11:43:14.186Z,22.20
2018-10-12T11:44:14.241Z,22.21
2018-10-12T11:45:14.277Z,22.22
2018-10-12T11:46:14.324Z,22.20
2018-10-12T11:47:14.365Z,22.27
2018-10-12T11:48:14.408Z,22.27
2018-10-12T11:49:14.453Z,22.33
2018-10-12T11:50:14.536Z,22.33
2018-10-12T11:51:14.564Z,22.28
2018-10-12T11:52:14.648Z,22.33
2018-10-12T11:53:14.628Z,22.40
2018-10-12T11:54:14.698Z,22.37
2018-10-12T11:55:14.721Z,22.47
2018-10-12T11:56:14.765Z,22.43
2018-10-12T11:57:14.810Z,22.49
2018-10-12T11:58:14.856Z,22.52
2018-10-12T11:59:14.898Z,22.46
2018-10-12T12:00:14.940Z,22.54
2018-10-12T12:01:14.989Z,22.58
2018-10-12T12:02:15.051Z,22.61
2018-10-12T12:03:15.079Z,22.60
2018-10-12T12:04:15.115Z,22.62
2018-10-12T12:05:15.161Z,22.55
2018-10-12T12:06:15.218Z,22.55
2018-10-12T12:07:15.278Z,22.51
2018-10-12T12:08:15.296Z,22.51
2018-10-12T12:09:15.342Z,22.55
2018-10-12T12:10:15.382Z,22.55
2018-10-12T12:11:15.426Z,22.64
2018-10-12T12:12:15.471Z,22.67
2018-10-12T12:13:15.519Z,22.67
2018-10-12T12:14:15.564Z,22.67
2018-10-12T12:15:15.607Z,22.72
2018-10-12T12:16:15.651Z,22.67
2018-10-12T12:17:15.707Z,22.72
2018-10-12T12:18:15.738Z,22.73
2018-10-12T12:19:15.791Z,22.85
2018-10-12T12:20:15.829Z,22.82
2018-10-12T12:21:15.872Z,22.88
2018-10-12T12:22:15.915Z,22.86
2018-10-12T12:23:15.971Z,22.88
2018-10-12T12:24:16.004Z,22.77
2018-10-12T12:25:16.049Z,22.85
2018-10-12T12:26:16.092Z,22.86
2018-10-12T12:27:16.139Z,22.85
2018-10-12T12:28:16.182Z,22.83
2018-10-12T12:29:16.233Z,22.82
2018-10-12T12:30:16.271Z,22.91
2018-10-12T12:31:16.325Z,22.98
2018-10-12T12:32:16.370Z,22.98
2018-10-12T12:33:16.406Z,22.97
2018-10-12T12:34:16.451Z,22.92
2018-10-12T12:35:16.858Z,22.94
2018-10-12T12:36:16.705Z,22.98
2018-10-12T12:37:16.586Z,22.97
2018-10-12T12:38:16.628Z,22.91
2018-10-12T12:39:16.674Z,23.01
2018-10-12T12:40:16.719Z,22.98
2018-10-12T12:41:16.764Z,22.98
2018-10-12T12:42:16.808Z,22.92
2018-10-12T12:43:16.858Z,23.05
2018-10-12T12:44:16.898Z,23.10
2018-10-12T12:45:16.943Z,23.10
2018-10-12T12:46:16.990Z,23.15
2018-10-12T12:47:17.091Z,23.07
2018-10-12T12:48:17.309Z,23.07
2018-10-12T12:49:17.417Z,23.20
2018-10-12T12:50:17.164Z,23.16
2018-10-12T12:51:17.209Z,23.20
2018-10-12T12:52:17.257Z,23.22
2018-10-12T12:53:17.299Z,23.20
2018-10-12T12:54:17.343Z,23.20
2018-10-12T12:55:17.391Z,23.22
2018-10-12T12:56:17.433Z,23.27
2018-10-12T12:57:17.478Z,23.25